Terminal Aerodrome Forecast
Issued by NWS Wilmington, OH

Current Version | Previous Version | Text Only | Print | Product List | Glossary Off
Versions: 1 2 3 4 5 6 7 8 9 10 11 12 13 14 15 16 17 18 19 20

574
FTUS41 KILN 042000 AAA
TAFDAY
TAF AMD
KDAY 042000Z 0420/0518 12011KT P6SM VCSH SCT022 BKN045 OVC100
     FM042200 13008KT 4SM -RA BR OVC012
     FM050000 15006KT 4SM -RA BR OVC006
     FM050400 28010KT P6SM OVC004
     FM051400 23006KT P6SM BKN011=

USA.gov is the U.S. government's official web portal to all federal, state and local government web resources and services.